sensor_id;sensor_type;location;lat;lon;timestamp;P1;durP1;ratioP1;P2;durP2;ratioP2
26391;SDS011;14572;43.120;1.178;2023-02-15T17:05:21;7.78;;;4.20;;
26391;SDS011;14572;43.120;1.178;2023-02-15T17:07:49;11.25;;;6.03;;
26391;SDS011;14572;43.120;1.178;2023-02-15T17:10:29;7.43;;;3.53;;
26391;SDS011;14572;43.120;1.178;2023-02-15T17:13:00;9.38;;;6.60;;
26391;SDS011;14572;43.120;1.178;2023-02-15T17:15:29;7.93;;;5.05;;
26391;SDS011;14572;43.120;1.178;2023-02-15T17:18:04;6.18;;;4.30;;
26391;SDS011;14572;43.120;1.178;2023-02-15T17:20:33;9.57;;;6.72;;
26391;SDS011;14572;43.120;1.178;2023-02-15T17:23:00;8.40;;;4.70;;
26391;SDS011;14572;43.120;1.178;2023-02-15T17:25:31;5.38;;;3.85;;
26391;SDS011;14572;43.120;1.178;2023-02-15T17:28:02;10.68;;;4.35;;
26391;SDS011;14572;43.120;1.178;2023-02-15T17:30:31;8.88;;;4.55;;
26391;SDS011;14572;43.120;1.178;2023-02-15T17:33:00;6.40;;;4.13;;
26391;SDS011;14572;43.120;1.178;2023-02-15T17:35:31;4.95;;;3.50;;
26391;SDS011;14572;43.120;1.178;2023-02-15T17:38:03;7.35;;;3.38;;
26391;SDS011;14572;43.120;1.178;2023-02-15T17:40:33;4.85;;;3.67;;
26391;SDS011;14572;43.120;1.178;2023-02-15T17:43:01;6.20;;;3.15;;
26391;SDS011;14572;43.120;1.178;2023-02-15T17:45:32;9.57;;;4.45;;
26391;SDS011;14572;43.120;1.178;2023-02-15T17:48:02;6.95;;;3.92;;
26391;SDS011;14572;43.120;1.178;2023-02-15T17:50:31;7.43;;;4.55;;
26391;SDS011;14572;43.120;1.178;2023-02-15T17:52:58;6.70;;;4.00;;
26391;SDS011;14572;43.120;1.178;2023-02-15T17:55:27;4.85;;;3.45;;
26391;SDS011;14572;43.120;1.178;2023-02-15T17:58:08;7.20;;;4.20;;
26391;SDS011;14572;43.120;1.178;2023-02-15T18:00:37;15.48;;;12.32;;
26391;SDS011;14572;43.120;1.178;2023-02-15T18:03:24;16.77;;;13.15;;
26391;SDS011;14572;43.120;1.178;2023-02-15T18:06:10;8.38;;;5.18;;
26391;SDS011;14572;43.120;1.178;2023-02-15T18:08:56;8.35;;;5.28;;
26391;SDS011;14572;43.120;1.178;2023-02-15T18:11:41;11.10;;;6.15;;
26391;SDS011;14572;43.120;1.178;2023-02-15T18:14:12;7.25;;;5.68;;
26391;SDS011;14572;43.120;1.178;2023-02-15T18:16:40;6.20;;;4.30;;
26391;SDS011;14572;43.120;1.178;2023-02-15T18:19:10;7.03;;;4.80;;
26391;SDS011;14572;43.120;1.178;2023-02-15T18:21:42;9.25;;;5.35;;
26391;SDS011;14572;43.120;1.178;2023-02-15T18:24:13;7.95;;;5.50;;
26391;SDS011;14572;43.120;1.178;2023-02-15T18:26:41;8.48;;;4.93;;
26391;SDS011;14572;43.120;1.178;2023-02-15T18:29:08;9.57;;;4.55;;
26391;SDS011;14572;43.120;1.178;2023-02-15T18:31:36;6.43;;;4.57;;
26391;SDS011;14572;43.120;1.178;2023-02-15T18:34:03;11.20;;;4.88;;
26391;SDS011;14572;43.120;1.178;2023-02-15T18:36:31;9.10;;;5.22;;
26391;SDS011;14572;43.120;1.178;2023-02-15T18:39:15;11.27;;;5.10;;
26391;SDS011;14572;43.120;1.178;2023-02-15T18:41:50;8.98;;;5.13;;
26391;SDS011;14572;43.120;1.178;2023-02-15T18:44:18;7.22;;;4.65;;
26391;SDS011;14572;43.120;1.178;2023-02-15T18:46:46;8.43;;;4.65;;
26391;SDS011;14572;43.120;1.178;2023-02-15T18:49:13;9.77;;;5.85;;
26391;SDS011;14572;43.120;1.178;2023-02-15T18:51:40;10.38;;;5.20;;
26391;SDS011;14572;43.120;1.178;2023-02-15T18:54:11;10.13;;;5.43;;
26391;SDS011;14572;43.120;1.178;2023-02-15T18:56:45;9.85;;;4.97;;
26391;SDS011;14572;43.120;1.178;2023-02-15T18:59:16;11.40;;;7.03;;
26391;SDS011;14572;43.120;1.178;2023-02-15T19:01:43;12.38;;;6.95;;
26391;SDS011;14572;43.120;1.178;2023-02-15T19:04:11;10.30;;;5.95;;
26391;SDS011;14572;43.120;1.178;2023-02-15T19:06:39;10.68;;;6.05;;
26391;SDS011;14572;43.120;1.178;2023-02-15T19:09:11;13.48;;;6.32;;
26391;SDS011;14572;43.120;1.178;2023-02-15T19:11:42;14.82;;;7.03;;
26391;SDS011;14572;43.120;1.178;2023-02-15T19:14:13;14.90;;;8.27;;
26391;SDS011;14572;43.120;1.178;2023-02-15T19:16:48;14.88;;;8.25;;
26391;SDS011;14572;43.120;1.178;2023-02-15T19:19:16;20.70;;;10.57;;
26391;SDS011;14572;43.120;1.178;2023-02-15T19:21:43;20.80;;;10.27;;
26391;SDS011;14572;43.120;1.178;2023-02-15T19:24:11;17.30;;;9.63;;
26391;SDS011;14572;43.120;1.178;2023-02-15T19:26:42;15.98;;;9.40;;
26391;SDS011;14572;43.120;1.178;2023-02-15T19:29:09;11.73;;;7.43;;
26391;SDS011;14572;43.120;1.178;2023-02-15T19:31:38;9.77;;;6.28;;
26391;SDS011;14572;43.120;1.178;2023-02-15T19:34:09;12.00;;;5.55;;
26391;SDS011;14572;43.120;1.178;2023-02-15T19:36:40;9.77;;;5.53;;
26391;SDS011;14572;43.120;1.178;2023-02-15T19:39:09;7.65;;;4.82;;
26391;SDS011;14572;43.120;1.178;2023-02-15T19:41:51;9.25;;;4.90;;
26391;SDS011;14572;43.120;1.178;2023-02-15T19:44:19;9.20;;;5.22;;
26391;SDS011;14572;43.120;1.178;2023-02-15T19:46:46;10.05;;;4.93;;
26391;SDS011;14572;43.120;1.178;2023-02-15T19:49:14;7.65;;;4.85;;
26391;SDS011;14572;43.120;1.178;2023-02-15T19:51:41;9.07;;;5.00;;
26391;SDS011;14572;43.120;1.178;2023-02-15T19:54:15;8.10;;;5.00;;
26391;SDS011;14572;43.120;1.178;2023-02-15T19:56:56;10.60;;;5.55;;
26391;SDS011;14572;43.120;1.178;2023-02-15T19:59:24;9.55;;;4.93;;
26391;SDS011;14572;43.120;1.178;2023-02-15T20:01:52;12.70;;;5.45;;
26391;SDS011;14572;43.120;1.178;2023-02-15T20:04:20;8.27;;;5.13;;
26391;SDS011;14572;43.120;1.178;2023-02-15T20:06:48;9.73;;;5.20;;
26391;SDS011;14572;43.120;1.178;2023-02-15T20:09:17;8.15;;;4.90;;
26391;SDS011;14572;43.120;1.178;2023-02-15T20:11:48;8.35;;;5.25;;
26391;SDS011;14572;43.120;1.178;2023-02-15T20:14:17;7.57;;;4.97;;
26391;SDS011;14572;43.120;1.178;2023-02-15T20:16:45;8.82;;;4.70;;
26391;SDS011;14572;43.120;1.178;2023-02-15T20:19:12;7.88;;;5.00;;
26391;SDS011;14572;43.120;1.178;2023-02-15T20:21:39;6.72;;;4.20;;
26391;SDS011;14572;43.120;1.178;2023-02-15T20:24:06;7.63;;;4.28;;
26391;SDS011;14572;43.120;1.178;2023-02-15T20:26:35;7.30;;;4.53;;
26391;SDS011;14572;43.120;1.178;2023-02-15T20:29:02;8.73;;;4.80;;
26391;SDS011;14572;43.120;1.178;2023-02-15T20:31:31;9.05;;;4.57;;
26391;SDS011;14572;43.120;1.178;2023-02-15T20:33:59;9.40;;;5.07;;
26391;SDS011;14572;43.120;1.178;2023-02-15T20:36:26;9.45;;;4.70;;
26391;SDS011;14572;43.120;1.178;2023-02-15T20:38:54;8.45;;;4.63;;
26391;SDS011;14572;43.120;1.178;2023-02-15T20:41:21;12.23;;;4.70;;
26391;SDS011;14572;43.120;1.178;2023-02-15T20:44:07;6.95;;;4.82;;
26391;SDS011;14572;43.120;1.178;2023-02-15T20:46:42;10.07;;;5.18;;
26391;SDS011;14572;43.120;1.178;2023-02-15T20:49:10;10.43;;;4.90;;
26391;SDS011;14572;43.120;1.178;2023-02-15T20:51:39;7.40;;;4.50;;
26391;SDS011;14572;43.120;1.178;2023-02-15T20:54:10;8.07;;;5.20;;
26391;SDS011;14572;43.120;1.178;2023-02-15T20:56:40;8.52;;;5.50;;
26391;SDS011;14572;43.120;1.178;2023-02-15T20:59:15;9.75;;;5.65;;
26391;SDS011;14572;43.120;1.178;2023-02-15T21:01:47;8.40;;;5.43;;
26391;SDS011;14572;43.120;1.178;2023-02-15T21:04:15;9.45;;;4.90;;
26391;SDS011;14572;43.120;1.178;2023-02-15T21:06:44;9.18;;;4.78;;
26391;SDS011;14572;43.120;1.178;2023-02-15T21:09:12;10.45;;;5.65;;
26391;SDS011;14572;43.120;1.178;2023-02-15T21:11:40;8.82;;;5.30;;
26391;SDS011;14572;43.120;1.178;2023-02-15T21:14:09;9.23;;;5.13;;
26391;SDS011;14572;43.120;1.178;2023-02-15T21:16:42;9.63;;;5.35;;
26391;SDS011;14572;43.120;1.178;2023-02-15T21:19:11;9.95;;;5.65;;
26391;SDS011;14572;43.120;1.178;2023-02-15T21:21:39;8.93;;;5.40;;
26391;SDS011;14572;43.120;1.178;2023-02-15T21:24:08;9.65;;;5.20;;
26391;SDS011;14572;43.120;1.178;2023-02-15T21:26:39;9.75;;;5.45;;
26391;SDS011;14572;43.120;1.178;2023-02-15T21:29:08;10.10;;;5.60;;
26391;SDS011;14572;43.120;1.178;2023-02-15T21:31:40;11.32;;;6.45;;
26391;SDS011;14572;43.120;1.178;2023-02-15T21:34:07;11.27;;;6.07;;
26391;SDS011;14572;43.120;1.178;2023-02-15T21:36:36;11.35;;;6.47;;
26391;SDS011;14572;43.120;1.178;2023-02-15T21:39:04;8.38;;;5.85;;
26391;SDS011;14572;43.120;1.178;2023-02-15T21:41:31;10.18;;;5.45;;
26391;SDS011;14572;43.120;1.178;2023-02-15T21:44:16;9.38;;;5.60;;
26391;SDS011;14572;43.120;1.178;2023-02-15T21:47:02;9.68;;;5.18;;
26391;SDS011;14572;43.120;1.178;2023-02-15T21:49:46;8.18;;;5.57;;
26391;SDS011;14572;43.120;1.178;2023-02-15T21:52:16;10.13;;;5.57;;
26391;SDS011;14572;43.120;1.178;2023-02-15T21:54:44;11.35;;;5.88;;
26391;SDS011;14572;43.120;1.178;2023-02-15T21:57:11;9.75;;;5.50;;
26391;SDS011;14572;43.120;1.178;2023-02-15T21:59:39;9.65;;;6.25;;
26391;SDS011;14572;43.120;1.178;2023-02-15T22:02:19;10.98;;;6.30;;
26391;SDS011;14572;43.120;1.178;2023-02-15T22:04:51;9.45;;;5.88;;
26391;SDS011;14572;43.120;1.178;2023-02-15T22:07:20;10.27;;;5.55;;
26391;SDS011;14572;43.120;1.178;2023-02-15T22:09:47;11.30;;;5.25;;
26391;SDS011;14572;43.120;1.178;2023-02-15T22:12:14;12.82;;;5.72;;
26391;SDS011;14572;43.120;1.178;2023-02-15T22:14:43;11.55;;;5.20;;
26391;SDS011;14572;43.120;1.178;2023-02-15T22:17:13;9.38;;;5.65;;
26391;SDS011;14572;43.120;1.178;2023-02-15T22:19:40;9.85;;;5.32;;
26391;SDS011;14572;43.120;1.178;2023-02-15T22:22:08;10.00;;;5.97;;
26391;SDS011;14572;43.120;1.178;2023-02-15T22:24:36;9.52;;;5.93;;
26391;SDS011;14572;43.120;1.178;2023-02-15T22:27:04;10.95;;;6.03;;
26391;SDS011;14572;43.120;1.178;2023-02-15T22:29:31;12.07;;;6.00;;
26391;SDS011;14572;43.120;1.178;2023-02-15T22:31:58;10.80;;;6.40;;
26391;SDS011;14572;43.120;1.178;2023-02-15T22:34:26;13.88;;;6.05;;
26391;SDS011;14572;43.120;1.178;2023-02-15T22:36:55;10.00;;;5.55;;
26391;SDS011;14572;43.120;1.178;2023-02-15T22:39:22;9.50;;;6.32;;
26391;SDS011;14572;43.120;1.178;2023-02-15T22:41:52;7.03;;;5.03;;
26391;SDS011;14572;43.120;1.178;2023-02-15T22:44:20;9.25;;;5.65;;
26391;SDS011;14572;43.120;1.178;2023-02-15T22:46:49;9.10;;;6.10;;
26391;SDS011;14572;43.120;1.178;2023-02-15T22:49:16;11.75;;;5.97;;
26391;SDS011;14572;43.120;1.178;2023-02-15T22:51:44;10.18;;;5.10;;
26391;SDS011;14572;43.120;1.178;2023-02-15T22:54:13;10.48;;;5.90;;
26391;SDS011;14572;43.120;1.178;2023-02-15T22:56:41;8.50;;;5.97;;
26391;SDS011;14572;43.120;1.178;2023-02-15T22:59:13;7.78;;;5.43;;
26391;SDS011;14572;43.120;1.178;2023-02-15T23:01:42;10.07;;;6.38;;
26391;SDS011;14572;43.120;1.178;2023-02-15T23:04:10;10.95;;;5.80;;
26391;SDS011;14572;43.120;1.178;2023-02-15T23:06:42;9.45;;;5.60;;
26391;SDS011;14572;43.120;1.178;2023-02-15T23:09:09;12.83;;;5.60;;
26391;SDS011;14572;43.120;1.178;2023-02-15T23:11:36;11.02;;;5.85;;
26391;SDS011;14572;43.120;1.178;2023-02-15T23:14:03;10.47;;;6.20;;
26391;SDS011;14572;43.120;1.178;2023-02-15T23:16:32;9.40;;;6.03;;
26391;SDS011;14572;43.120;1.178;2023-02-15T23:18:59;11.50;;;5.53;;
26391;SDS011;14572;43.120;1.178;2023-02-15T23:21:27;8.00;;;5.60;;
26391;SDS011;14572;43.120;1.178;2023-02-15T23:23:56;12.70;;;7.40;;
26391;SDS011;14572;43.120;1.178;2023-02-15T23:26:27;11.23;;;6.87;;
26391;SDS011;14572;43.120;1.178;2023-02-15T23:28:55;12.17;;;7.03;;
26391;SDS011;14572;43.120;1.178;2023-02-15T23:31:24;12.13;;;6.83;;
26391;SDS011;14572;43.120;1.178;2023-02-15T23:33:54;11.57;;;6.00;;
26391;SDS011;14572;43.120;1.178;2023-02-15T23:36:23;12.37;;;6.07;;
26391;SDS011;14572;43.120;1.178;2023-02-15T23:38:52;9.97;;;5.77;;
26391;SDS011;14572;43.120;1.178;2023-02-15T23:41:21;11.87;;;6.23;;
26391;SDS011;14572;43.120;1.178;2023-02-15T23:43:48;9.97;;;5.90;;
26391;SDS011;14572;43.120;1.178;2023-02-15T23:46:22;11.10;;;5.63;;
26391;SDS011;14572;43.120;1.178;2023-02-15T23:48:55;12.70;;;7.93;;
26391;SDS011;14572;43.120;1.178;2023-02-15T23:51:26;10.30;;;6.47;;
26391;SDS011;14572;43.120;1.178;2023-02-15T23:53:56;10.97;;;6.37;;
26391;SDS011;14572;43.120;1.178;2023-02-15T23:56:23;11.77;;;5.77;;
26391;SDS011;14572;43.120;1.178;2023-02-15T23:58:50;13.00;;;6.17;;
